createdAt,value
2022-11-07T00:00:36.176Z,95.08
2022-11-07T00:03:03.157Z,95.04
2022-11-07T00:05:30.571Z,94.91
2022-11-07T00:07:57.663Z,95.22
2022-11-07T00:10:24.285Z,94.94
2022-11-07T00:12:50.934Z,94.86
2022-11-07T00:15:17.784Z,94.81
2022-11-07T00:17:44.447Z,94.70
2022-11-07T00:20:11.566Z,94.60
2022-11-07T00:22:38.205Z,94.47
2022-11-07T00:25:05.283Z,94.84
2022-11-07T00:27:31.976Z,94.81
2022-11-07T00:29:58.743Z,94.83
2022-11-07T00:32:25.364Z,94.59
2022-11-07T00:34:52.053Z,94.29
2022-11-07T00:37:18.692Z,93.98
2022-11-07T00:39:45.674Z,94.17
2022-11-07T00:42:12.315Z,93.92
2022-11-07T00:44:38.916Z,94.33
2022-11-07T00:47:05.736Z,94.45
2022-11-07T00:49:32.430Z,94.42
2022-11-07T00:51:59.063Z,94.54
2022-11-07T00:54:26.010Z,94.81
2022-11-07T00:56:52.812Z,95.07
2022-11-07T00:59:19.477Z,94.91
2022-11-07T01:01:46.405Z,95.08
2022-11-07T01:04:33.776Z,94.73
2022-11-07T01:07:01.224Z,94.60
2022-11-07T01:09:27.936Z,94.60
2022-11-07T01:11:54.608Z,94.67
2022-11-07T01:14:21.952Z,94.82
2022-11-07T01:16:48.692Z,94.86
2022-11-07T01:19:15.684Z,94.76
2022-11-07T01:21:42.579Z,94.74
2022-11-07T01:24:10.153Z,94.89
2022-11-07T01:26:37.070Z,94.95
2022-11-07T01:29:04.006Z,94.95
2022-11-07T01:31:31.342Z,94.84
2022-11-07T01:33:59.124Z,95.02
2022-11-07T01:36:26.039Z,95.05
2022-11-07T01:38:52.883Z,94.82
2022-11-07T01:41:23.125Z,94.73
2022-11-07T01:44:01.457Z,94.51
2022-11-07T01:46:31.955Z,94.18
2022-11-07T01:49:17.453Z,94.07
2022-11-07T01:52:00.451Z,94.04
2022-11-07T01:54:32.194Z,93.99
2022-11-07T01:57:01.399Z,94.01
2022-11-07T01:59:29.134Z,94.03
2022-11-07T02:01:56.482Z,93.71
2022-11-07T02:04:24.390Z,93.72
2022-11-07T02:07:21.233Z,93.71
2022-11-07T02:09:48.422Z,94.02
2022-11-07T02:12:15.045Z,93.79
2022-11-07T02:14:42.913Z,93.52
2022-11-07T02:17:10.723Z,93.75
2022-11-07T02:19:40.296Z,93.39
2022-11-07T02:22:17.634Z,93.36
2022-11-07T02:24:44.437Z,93.37
2022-11-07T02:27:13.462Z,93.03
2022-11-07T02:29:41.238Z,93.01
2022-11-07T02:32:09.556Z,92.49
2022-11-07T02:34:36.365Z,92.49
2022-11-07T02:37:04.883Z,92.49
2022-11-07T02:39:31.656Z,92.65
2022-11-07T02:41:58.292Z,92.67
2022-11-07T02:44:24.988Z,92.50
2022-11-07T02:46:51.640Z,92.49
2022-11-07T02:49:18.628Z,92.48
2022-11-07T02:51:45.266Z,92.16
2022-11-07T02:54:12.170Z,92.10
2022-11-07T02:56:38.832Z,92.32
2022-11-07T02:59:05.634Z,92.54
2022-11-07T03:01:32.424Z,92.24
2022-11-07T03:03:59.332Z,92.22
2022-11-07T03:06:26.085Z,92.36
2022-11-07T03:08:52.926Z,92.26
2022-11-07T03:11:20.035Z,92.16
2022-11-07T03:13:47.559Z,92.16
2022-11-07T03:16:14.407Z,91.94
2022-11-07T03:18:41.040Z,92.19
2022-11-07T03:21:07.851Z,92.26
2022-11-07T03:23:35.110Z,92.03
2022-11-07T03:26:02.563Z,92.03
2022-11-07T03:28:29.200Z,91.68
2022-11-07T03:30:59.086Z,91.56
2022-11-07T03:33:25.765Z,91.26
2022-11-07T03:35:52.370Z,91.37
2022-11-07T03:38:19.004Z,91.43
2022-11-07T03:40:46.402Z,91.50
2022-11-07T03:43:13.268Z,91.58
2022-11-07T03:45:40.115Z,91.50
2022-11-07T03:48:06.797Z,91.62
2022-11-07T03:50:33.436Z,91.24
2022-11-07T03:53:00.138Z,91.18
2022-11-07T03:55:26.753Z,91.26
2022-11-07T03:57:53.452Z,91.16
2022-11-07T04:00:20.385Z,91.30
2022-11-07T04:02:47.306Z,91.12
2022-11-07T04:05:14.030Z,91.21
2022-11-07T04:07:40.744Z,90.88
2022-11-07T04:10:07.517Z,90.92
2022-11-07T04:12:52.884Z,90.85
2022-11-07T04:15:38.227Z,90.89
2022-11-07T04:18:04.943Z,90.72
2022-11-07T04:20:31.675Z,90.57
2022-11-07T04:22:58.347Z,90.74
2022-11-07T04:25:44.997Z,90.40
2022-11-07T04:28:11.762Z,90.32
2022-11-07T04:30:38.390Z,90.07
2022-11-07T04:33:05.014Z,89.86
2022-11-07T04:35:32.410Z,89.53
2022-11-07T04:37:59.681Z,89.53
2022-11-07T04:40:26.768Z,89.50
2022-11-07T04:42:53.465Z,89.14
2022-11-07T04:45:20.135Z,89.19
2022-11-07T04:47:46.980Z,89.22
2022-11-07T04:50:16.105Z,89.34
2022-11-07T04:52:42.878Z,89.13
2022-11-07T04:55:10.194Z,89.29
2022-11-07T04:57:36.847Z,89.16
2022-11-07T05:00:04.762Z,89.07
2022-11-07T05:02:31.833Z,88.85
2022-11-07T05:04:58.541Z,88.70
2022-11-07T05:07:25.185Z,88.20
2022-11-07T05:09:51.773Z,87.78
2022-11-07T05:12:18.456Z,87.88
2022-11-07T05:14:45.071Z,87.69
2022-11-07T05:17:14.404Z,87.20
2022-11-07T05:19:43.281Z,87.06
2022-11-07T09:59:56.011Z,100.00
2022-11-07T10:02:34.137Z,100.00
2022-11-07T10:05:02.301Z,100.00
2022-11-07T10:07:59.613Z,100.00
2022-11-07T10:10:38.348Z,100.00
2022-11-07T10:13:23.531Z,100.00
2022-11-07T10:15:55.656Z,100.00
2022-11-07T10:18:53.492Z,100.00
2022-11-07T10:21:38.538Z,99.92
2022-11-07T10:24:21.291Z,99.83
2022-11-07T10:26:47.947Z,99.77
2022-11-07T10:29:26.549Z,99.71
2022-11-07T10:32:11.760Z,99.17
2022-11-07T10:34:42.392Z,98.42
2022-11-07T10:37:09.060Z,97.38
2022-11-07T10:39:35.822Z,97.14
2022-11-07T10:42:10.984Z,96.61
2022-11-07T10:44:39.093Z,95.61
2022-11-07T10:47:15.910Z,94.67
2022-11-07T10:49:42.716Z,93.81
2022-11-07T10:52:19.081Z,93.41
2022-11-07T10:54:46.441Z,92.89
2022-11-07T10:57:16.674Z,92.21
2022-11-07T10:59:57.547Z,91.77
2022-11-07T11:02:25.588Z,91.82
2022-11-07T11:05:00.490Z,91.21
2022-11-07T11:07:39.942Z,91.24
2022-11-07T11:10:27.280Z,90.52
2022-11-07T11:12:54.271Z,89.73
2022-11-07T11:15:22.896Z,89.64
2022-11-07T11:18:03.909Z,88.95
2022-11-07T11:20:31.051Z,87.99
2022-11-07T11:22:57.826Z,88.01
2022-11-07T11:25:24.624Z,87.99
2022-11-07T11:28:02.136Z,87.99
2022-11-07T11:30:29.076Z,87.74
2022-11-07T11:33:05.112Z,87.81
2022-11-07T11:35:42.170Z,87.81
2022-11-07T11:38:26.660Z,87.79
2022-11-07T11:41:03.324Z,88.12
2022-11-07T11:43:47.760Z,87.61
2022-11-07T11:46:20.353Z,87.10
2022-11-07T11:48:49.481Z,86.20
2022-11-07T11:51:21.138Z,85.76
2022-11-07T11:53:47.831Z,85.26
2022-11-07T11:56:27.147Z,84.83
2022-11-07T11:58:59.782Z,84.45
2022-11-07T12:01:38.532Z,84.45
2022-11-07T12:04:47.094Z,84.38
2022-11-07T12:07:36.878Z,84.02
2022-11-07T12:10:06.047Z,83.11
2022-11-07T12:12:42.111Z,82.84
2022-11-07T12:15:39.299Z,82.94
2022-11-07T12:18:19.996Z,82.62
2022-11-07T12:21:20.123Z,81.83
2022-11-07T12:24:10.180Z,80.94
2022-11-07T12:26:54.412Z,81.00
2022-11-07T12:29:42.866Z,80.76
2022-11-07T12:32:39.079Z,80.74
2022-11-07T12:35:34.515Z,81.06
2022-11-07T12:38:21.467Z,81.21
2022-11-07T12:41:11.098Z,81.16
2022-11-07T12:43:47.191Z,80.83
2022-11-07T12:46:27.552Z,80.08
2022-11-07T12:49:05.030Z,79.80
2022-11-07T12:51:53.765Z,79.72
2022-11-07T12:54:31.516Z,79.68
2022-11-07T12:56:58.207Z,79.06
2022-11-07T12:59:27.186Z,79.05
2022-11-07T13:02:07.496Z,79.29
2022-11-07T13:04:47.635Z,79.32
2022-11-07T13:07:25.396Z,78.97
2022-11-07T13:10:01.309Z,78.87
2022-11-07T13:12:31.124Z,79.08
2022-11-07T13:14:58.428Z,78.92
2022-11-07T13:17:27.830Z,79.39
2022-11-07T13:20:02.114Z,79.66
2022-11-07T13:22:34.194Z,79.64
2022-11-07T13:25:13.400Z,79.78
2022-11-07T13:27:59.515Z,80.09
2022-11-07T13:30:29.513Z,80.03
2022-11-07T13:32:56.671Z,79.74
2022-11-07T13:35:23.663Z,79.45
2022-11-07T13:37:54.449Z,79.41
2022-11-07T13:40:51.840Z,79.03
2022-11-07T13:43:19.861Z,78.54
2022-11-07T13:45:50.886Z,78.22
2022-11-07T13:48:49.158Z,78.10
2022-11-07T13:51:28.199Z,78.15
2022-11-07T13:54:15.852Z,78.73
2022-11-07T13:56:56.880Z,78.83
2022-11-07T17:57:54.247Z,90.58
2022-11-07T18:00:22.782Z,90.35
2022-11-07T18:02:50.809Z,90.06
2022-11-07T18:05:19.611Z,89.73
2022-11-07T18:07:46.762Z,89.44
2022-11-07T18:10:15.353Z,89.40
2022-11-07T18:12:42.473Z,89.58
2022-11-07T18:15:12.787Z,89.01
2022-11-07T18:17:40.396Z,89.18
2022-11-07T18:20:08.353Z,89.12
2022-11-07T18:22:37.231Z,89.18
2022-11-07T18:25:07.470Z,88.86
2022-11-07T18:27:34.590Z,88.85
2022-11-07T18:30:02.995Z,89.08
2022-11-07T18:32:34.658Z,88.78
2022-11-07T18:35:04.876Z,88.39
2022-11-07T18:37:31.791Z,88.11
2022-11-07T18:39:58.582Z,87.94
2022-11-07T18:42:25.270Z,87.87
2022-11-07T18:44:52.169Z,87.61
2022-11-07T18:47:18.907Z,87.29
2022-11-07T18:49:45.677Z,86.99
2022-11-07T18:52:12.705Z,86.72
2022-11-07T18:54:39.583Z,86.67
2022-11-07T18:57:06.435Z,86.46
2022-11-07T18:59:33.276Z,86.26
2022-11-07T19:02:00.591Z,86.17
2022-11-07T19:04:28.078Z,85.94
2022-11-07T19:06:57.856Z,86.00
2022-11-07T19:09:29.205Z,85.92
2022-11-07T19:11:56.807Z,85.71
2022-11-07T19:14:24.003Z,85.61
2022-11-07T19:16:50.828Z,85.47
2022-11-07T19:19:17.490Z,84.91
2022-11-07T19:21:44.422Z,84.59
2022-11-07T19:24:12.958Z,84.68
2022-11-07T19:26:39.831Z,84.46
2022-11-07T19:29:10.039Z,83.84
2022-11-07T19:31:37.484Z,83.32
2022-11-07T19:34:04.702Z,83.62
2022-11-07T19:36:31.508Z,83.30
2022-11-07T19:38:58.403Z,82.71
2022-11-07T19:41:25.233Z,82.17
2022-11-07T19:43:52.041Z,82.00
2022-11-07T19:46:23.105Z,81.92
2022-11-07T19:48:50.699Z,81.92
2022-11-07T19:51:22.190Z,81.99
2022-11-07T19:53:56.788Z,82.23
2022-11-07T19:56:24.959Z,81.94
2022-11-07T19:58:51.940Z,81.76
2022-11-07T20:01:26.803Z,82.13
2022-11-07T20:03:54.815Z,81.61
2022-11-07T20:06:23.795Z,81.56
2022-11-07T20:08:50.989Z,81.66
2022-11-07T20:11:20.062Z,81.80
2022-11-07T20:13:46.780Z,81.57
2022-11-07T20:16:13.739Z,81.98
2022-11-07T20:18:41.158Z,81.79
2022-11-07T20:21:12.343Z,81.55
2022-11-07T20:23:40.157Z,81.67
2022-11-07T20:26:27.803Z,81.23
2022-11-07T20:28:54.567Z,81.09
2022-11-07T20:31:25.267Z,80.94
2022-11-07T20:33:52.174Z,81.07
2022-11-07T20:36:19.032Z,81.06
2022-11-07T20:38:45.860Z,81.21
2022-11-07T20:41:13.311Z,81.02
2022-11-07T20:43:40.396Z,80.94
2022-11-07T20:46:08.633Z,80.89
2022-11-07T20:48:36.393Z,80.98
2022-11-07T20:51:11.191Z,80.72
2022-11-07T20:53:38.613Z,80.92
2022-11-07T20:56:08.476Z,81.16
2022-11-07T20:58:37.506Z,81.05
2022-11-07T21:01:04.977Z,80.91
2022-11-07T21:03:32.765Z,81.41
2022-11-07T21:06:00.099Z,81.27
2022-11-07T21:08:26.967Z,81.23
2022-11-07T21:10:55.620Z,80.97
2022-11-07T21:13:22.439Z,81.23
2022-11-07T21:15:49.891Z,81.52
2022-11-07T21:18:16.928Z,81.98
2022-11-07T21:20:43.977Z,81.90
2022-11-07T21:23:11.335Z,81.76
2022-11-07T21:25:45.187Z,81.94
2022-11-07T21:28:13.074Z,81.77
2022-11-07T21:30:40.849Z,82.12
2022-11-07T21:33:08.329Z,82.14
2022-11-07T21:35:35.910Z,81.84
2022-11-07T21:38:03.356Z,82.01
2022-11-07T21:40:31.189Z,81.43
2022-11-07T21:42:58.157Z,81.36
2022-11-07T21:45:25.260Z,81.34
2022-11-07T21:47:51.984Z,80.98
2022-11-07T21:50:43.152Z,81.06
2022-11-07T21:53:05.508Z,81.32
2022-11-07T21:55:32.259Z,81.06
2022-11-07T21:57:59.100Z,81.18
2022-11-07T22:00:25.946Z,81.17
2022-11-07T22:02:53.336Z,81.24
2022-11-07T22:05:20.298Z,81.04
2022-11-07T22:07:47.064Z,81.44
2022-11-07T22:10:13.956Z,81.65
2022-11-07T22:12:41.394Z,81.69
2022-11-07T22:15:09.749Z,81.48
2022-11-07T22:17:36.749Z,81.52
2022-11-07T22:20:04.446Z,81.34
2022-11-07T22:22:31.437Z,81.01
2022-11-07T22:24:58.119Z,80.80
2022-11-07T22:27:24.950Z,81.01
2022-11-07T22:29:51.709Z,80.93
2022-11-07T22:32:18.563Z,80.57
2022-11-07T22:34:45.350Z,80.41
2022-11-07T22:37:12.241Z,80.51
2022-11-07T22:39:39.037Z,80.25
2022-11-07T22:42:05.929Z,80.46
2022-11-07T22:44:32.875Z,80.60
2022-11-07T22:46:59.782Z,80.41
2022-11-07T22:49:26.527Z,80.38
2022-11-07T22:51:53.325Z,80.30
2022-11-07T22:54:20.147Z,80.33
2022-11-07T22:56:46.871Z,80.69
2022-11-07T22:59:13.541Z,80.42
2022-11-07T23:01:41.736Z,80.84
2022-11-07T23:04:10.302Z,80.63
2022-11-07T23:06:37.161Z,80.60
2022-11-07T23:09:05.023Z,80.73
2022-11-07T23:11:49.379Z,80.95
2022-11-07T23:14:19.371Z,80.65
2022-11-07T23:16:48.430Z,81.04
2022-11-07T23:19:17.066Z,80.95
2022-11-07T23:21:43.996Z,81.15
2022-11-07T23:24:10.908Z,81.13
2022-11-07T23:26:38.193Z,81.27
2022-11-07T23:29:11.690Z,81.41
2022-11-07T23:31:43.205Z,81.41
2022-11-07T23:34:09.977Z,80.94
2022-11-07T23:36:36.759Z,80.65
2022-11-07T23:39:07.339Z,80.69
2022-11-07T23:41:34.269Z,80.81
2022-11-07T23:44:01.070Z,81.04
2022-11-07T23:46:46.540Z,80.87
2022-11-07T23:49:31.689Z,80.44
2022-11-07T23:51:58.443Z,80.15
2022-11-07T23:54:44.024Z,79.82
2022-11-07T23:57:10.715Z,79.84
2022-11-07T23:59:56.261Z,79.96
